createdAt,value
2018-12-27T00:01:08.252Z,21.57
2018-12-27T00:03:35.492Z,23.57
2018-12-27T00:06:02.746Z,22.70
2018-12-27T00:08:29.979Z,23.47
2018-12-27T00:10:57.243Z,22.87
2018-12-27T00:13:24.459Z,24.07
2018-12-27T00:15:51.715Z,26.83
2018-12-27T00:18:18.972Z,24.87
2018-12-27T00:20:46.211Z,27.37
2018-12-27T00:23:13.495Z,26.47
2018-12-27T00:25:40.727Z,27.43
2018-12-27T00:28:08.086Z,26.00
2018-12-27T00:30:35.303Z,27.53
2018-12-27T00:33:03.247Z,27.73
2018-12-27T00:35:30.772Z,28.60
2018-12-27T00:37:57.999Z,27.83
2018-12-27T00:40:25.227Z,27.57
2018-12-27T00:42:52.779Z,29.27
2018-12-27T00:45:20.008Z,28.53
2018-12-27T00:47:50.508Z,30.47
2018-12-27T00:50:17.740Z,30.17
2018-12-27T00:52:46.093Z,28.30
2018-12-27T00:55:13.372Z,26.47
2018-12-27T00:57:40.664Z,27.40
2018-12-27T01:00:08.338Z,28.97
2018-12-27T01:02:35.631Z,26.50
2018-12-27T01:05:02.852Z,24.57
2018-12-27T01:07:30.083Z,24.53
2018-12-27T01:09:57.340Z,24.40
2018-12-27T01:12:24.543Z,25.10
2018-12-27T01:14:51.800Z,23.53
2018-12-27T01:17:19.067Z,24.13
2018-12-27T01:19:46.288Z,22.80
2018-12-27T01:22:13.575Z,22.47
2018-12-27T01:24:40.812Z,24.13
2018-12-27T01:27:08.030Z,22.33
2018-12-27T01:29:35.367Z,24.67
2018-12-27T01:32:02.621Z,22.67
2018-12-27T01:34:29.835Z,23.20
2018-12-27T01:36:57.112Z,24.97
2018-12-27T01:39:24.976Z,23.67
2018-12-27T01:41:52.190Z,23.17
2018-12-27T01:44:19.447Z,24.07
2018-12-27T01:46:46.655Z,25.30
2018-12-27T01:49:13.871Z,23.23
2018-12-27T01:51:41.119Z,23.17
2018-12-27T01:54:08.392Z,25.07
2018-12-27T01:56:35.611Z,26.67
2018-12-27T01:59:02.847Z,25.60
2018-12-27T02:01:30.084Z,23.20
2018-12-27T02:03:57.319Z,24.70
2018-12-27T02:06:24.546Z,25.70
2018-12-27T02:08:51.819Z,22.30
2018-12-27T02:11:19.045Z,24.90
2018-12-27T02:13:46.399Z,24.60
2018-12-27T02:16:13.712Z,25.70
2018-12-27T02:18:40.951Z,25.63
2018-12-27T02:21:08.207Z,23.97
2018-12-27T02:23:35.441Z,26.17
2018-12-27T02:26:02.687Z,23.63
2018-12-27T02:28:29.919Z,23.63
2018-12-27T02:30:57.149Z,22.90
2018-12-27T02:33:24.392Z,21.23
2018-12-27T02:35:51.627Z,21.93
2018-12-27T02:38:18.842Z,20.77
2018-12-27T02:40:46.059Z,22.43
2018-12-27T02:43:13.284Z,21.27
2018-12-27T02:45:40.561Z,24.20
2018-12-27T02:48:07.784Z,22.17
2018-12-27T02:50:35.028Z,21.57
2018-12-27T02:53:02.283Z,22.60
2018-12-27T02:55:29.567Z,23.37
2018-12-27T02:57:56.792Z,23.07
2018-12-27T03:00:24.027Z,22.03
2018-12-27T03:02:51.290Z,21.17
2018-12-27T03:05:18.519Z,20.17
2018-12-27T03:07:45.772Z,20.73
2018-12-27T03:10:13.116Z,21.27
2018-12-27T03:12:40.344Z,19.67
2018-12-27T03:15:07.587Z,22.43
2018-12-27T03:17:34.819Z,21.27
2018-12-27T03:20:02.065Z,19.67
2018-12-27T03:22:29.224Z,21.73
2018-12-27T03:24:56.477Z,21.83
2018-12-27T03:27:23.699Z,22.80
2018-12-27T03:29:50.943Z,22.23
2018-12-27T03:32:18.197Z,22.73
2018-12-27T03:34:45.486Z,22.47
2018-12-27T03:37:12.771Z,20.37
2018-12-27T03:39:40.015Z,22.23
2018-12-27T03:42:07.251Z,22.20
2018-12-27T03:44:34.504Z,22.07
2018-12-27T03:47:02.838Z,22.83
2018-12-27T03:49:30.063Z,21.90
2018-12-27T03:51:57.320Z,20.90
2018-12-27T03:54:24.565Z,21.67
2018-12-27T03:56:51.812Z,21.67
2018-12-27T03:59:19.023Z,22.53
2018-12-27T04:01:46.239Z,22.63
2018-12-27T04:04:13.509Z,23.70
2018-12-27T04:06:40.731Z,23.87
2018-12-27T04:09:07.983Z,22.77
2018-12-27T04:11:35.207Z,22.83
2018-12-27T04:14:02.537Z,22.13
2018-12-27T04:16:29.760Z,23.90
2018-12-27T04:18:57.119Z,23.20
2018-12-27T04:21:24.335Z,24.43
2018-12-27T04:23:51.666Z,22.53
2018-12-27T04:26:19.243Z,22.90
2018-12-27T04:28:46.481Z,22.23
2018-12-27T04:31:14.141Z,21.77
2018-12-27T04:33:42.287Z,20.57
2018-12-27T04:36:10.143Z,22.17
2018-12-27T04:38:37.381Z,24.60
2018-12-27T04:41:04.618Z,23.63
2018-12-27T04:43:32.972Z,24.23
2018-12-27T04:46:00.301Z,21.70
2018-12-27T04:48:27.537Z,24.53
2018-12-27T04:50:54.771Z,23.67
2018-12-27T04:53:22.007Z,24.03
2018-12-27T04:55:49.267Z,21.77
2018-12-27T04:58:16.503Z,24.20
2018-12-27T05:00:43.734Z,23.93
2018-12-27T05:03:10.966Z,23.37
2018-12-27T05:05:38.211Z,20.13
2018-12-27T05:08:05.447Z,21.20
2018-12-27T05:10:32.773Z,20.17
2018-12-27T05:13:00.027Z,19.63
2018-12-27T05:15:27.259Z,20.23
2018-12-27T05:17:54.473Z,19.63
2018-12-27T05:20:21.700Z,20.33
2018-12-27T05:22:48.956Z,19.17
2018-12-27T05:25:16.164Z,19.37
2018-12-27T05:27:43.428Z,20.23
2018-12-27T05:30:10.676Z,19.03
2018-12-27T05:32:37.907Z,19.47
2018-12-27T05:35:05.135Z,20.70
2018-12-27T05:37:32.369Z,19.53
2018-12-27T05:39:59.595Z,21.07
2018-12-27T05:42:26.815Z,20.17
2018-12-27T05:44:56.784Z,20.27
2018-12-27T05:47:24.025Z,20.67
2018-12-27T05:49:51.238Z,22.43
2018-12-27T05:52:18.455Z,21.43
2018-12-27T05:54:46.772Z,20.17
2018-12-27T05:57:14.224Z,22.33
2018-12-27T05:59:43.640Z,21.13
2018-12-27T06:02:10.949Z,22.50
2018-12-27T06:04:38.227Z,25.27
2018-12-27T06:07:05.507Z,24.00
2018-12-27T06:09:32.747Z,21.53
2018-12-27T06:12:00.019Z,23.20
2018-12-27T06:14:27.234Z,21.93
2018-12-27T06:16:54.485Z,22.27
2018-12-27T06:19:21.703Z,20.63
2018-12-27T06:21:48.967Z,21.33
2018-12-27T06:24:16.207Z,22.20
2018-12-27T06:26:43.444Z,22.13
2018-12-27T06:29:10.662Z,22.07
2018-12-27T06:31:37.923Z,23.00
2018-12-27T06:34:05.190Z,21.43
2018-12-27T06:36:32.515Z,19.60
2018-12-27T06:38:59.758Z,19.50
2018-12-27T06:41:26.984Z,21.03
2018-12-27T06:43:54.220Z,17.67
2018-12-27T06:46:21.445Z,19.17
2018-12-27T06:48:48.683Z,21.57
2018-12-27T06:51:15.927Z,19.20
2018-12-27T06:53:43.164Z,22.37
2018-12-27T06:56:10.401Z,21.40
2018-12-27T06:58:38.078Z,21.37
2018-12-27T07:01:05.506Z,20.87
2018-12-27T07:03:32.831Z,22.17
2018-12-27T07:06:00.063Z,21.47
2018-12-27T07:08:27.323Z,20.17
2018-12-27T07:10:54.554Z,20.57
2018-12-27T07:13:21.826Z,21.27
2018-12-27T07:15:49.044Z,20.10
2018-12-27T07:18:16.311Z,21.07
2018-12-27T07:20:43.593Z,20.53
2018-12-27T07:23:10.851Z,21.80
2018-12-27T07:25:38.992Z,21.93
2018-12-27T07:28:06.216Z,20.37
2018-12-27T07:30:34.438Z,23.23
2018-12-27T07:33:01.684Z,23.23
2018-12-27T07:35:28.951Z,22.57
2018-12-27T07:37:58.031Z,20.83
2018-12-27T07:40:25.594Z,33.00
2018-12-27T07:42:54.126Z,43.77
2018-12-27T07:45:22.117Z,31.50
2018-12-27T07:47:49.591Z,73.50
2018-12-27T07:50:17.152Z,36.33
2018-12-27T07:52:44.645Z,37.97
2018-12-27T07:55:12.073Z,36.70
2018-12-27T07:57:40.445Z,27.03
2018-12-27T08:00:08.104Z,27.47
2018-12-27T08:02:35.709Z,26.53
2018-12-27T08:05:04.630Z,25.63
2018-12-27T08:07:32.511Z,24.60
2018-12-27T08:10:00.553Z,26.20
2018-12-27T08:12:27.889Z,28.60
2018-12-27T08:14:55.224Z,28.57
2018-12-27T08:17:22.472Z,27.43
2018-12-27T08:19:49.712Z,27.43
2018-12-27T08:22:16.944Z,24.83
2018-12-27T08:24:44.254Z,24.33
2018-12-27T08:27:11.574Z,24.37
2018-12-27T08:29:38.863Z,24.53
2018-12-27T08:32:06.142Z,24.57
2018-12-27T08:34:33.635Z,24.03
2018-12-27T08:37:01.038Z,23.73
2018-12-27T08:39:28.402Z,24.37
2018-12-27T08:41:55.700Z,22.10
2018-12-27T08:44:22.968Z,21.73
2018-12-27T08:46:50.278Z,22.37
2018-12-27T08:49:17.564Z,23.10
2018-12-27T08:51:44.842Z,22.03
2018-12-27T08:54:12.136Z,21.63
2018-12-27T08:56:39.628Z,20.90
2018-12-27T08:59:06.978Z,21.80
2018-12-27T09:01:34.305Z,21.53
2018-12-27T09:04:01.675Z,21.53
2018-12-27T09:06:29.070Z,21.73
2018-12-27T09:08:56.499Z,21.73
2018-12-27T09:11:23.740Z,21.30
2018-12-27T09:13:51.102Z,19.97
2018-12-27T09:16:18.522Z,21.43
2018-12-27T09:18:45.893Z,20.73
2018-12-27T09:21:13.274Z,20.07
2018-12-27T09:23:40.690Z,19.47
2018-12-27T09:26:07.974Z,19.80
2018-12-27T09:28:35.246Z,21.40
2018-12-27T09:31:04.796Z,20.27
2018-12-27T09:33:32.151Z,21.23
2018-12-27T09:35:59.742Z,20.07
2018-12-27T09:38:27.034Z,19.37
2018-12-27T09:40:54.345Z,19.20
2018-12-27T09:43:22.195Z,19.43
2018-12-27T09:45:50.552Z,20.23
2018-12-27T09:48:17.879Z,41.27
2018-12-27T09:50:45.369Z,26.83
2018-12-27T09:53:12.850Z,26.53
2018-12-27T09:55:40.176Z,23.37
2018-12-27T09:58:07.439Z,23.90
2018-12-27T10:00:34.807Z,22.90
2018-12-27T10:03:02.219Z,22.63
2018-12-27T10:05:33.767Z,22.00
2018-12-27T10:07:58.739Z,23.50
2018-12-27T10:10:26.261Z,22.43
2018-12-27T10:12:53.562Z,21.80
2018-12-27T10:15:21.083Z,23.07
2018-12-27T10:17:50.345Z,25.17
2018-12-27T10:20:18.532Z,24.20
2018-12-27T10:22:45.873Z,22.47
2018-12-27T10:25:13.406Z,22.93
2018-12-27T10:27:40.818Z,25.87
2018-12-27T10:30:08.136Z,24.63
2018-12-27T10:32:35.549Z,23.97
2018-12-27T10:35:03.001Z,21.50
2018-12-27T10:37:30.264Z,22.13
2018-12-27T10:39:57.554Z,23.47
2018-12-27T10:42:24.868Z,21.67
2018-12-27T10:44:52.487Z,20.77
2018-12-27T10:47:20.024Z,21.33
2018-12-27T10:49:47.348Z,22.30
2018-12-27T10:52:17.990Z,23.40
2018-12-27T10:54:45.252Z,23.93
2018-12-27T10:57:18.767Z,24.50
2018-12-27T10:59:46.044Z,22.33
2018-12-27T11:02:13.327Z,22.80
2018-12-27T11:04:40.742Z,22.53
2018-12-27T11:07:09.171Z,24.20
2018-12-27T11:09:36.468Z,23.43
2018-12-27T11:12:04.002Z,23.93
2018-12-27T11:14:31.287Z,24.93
2018-12-27T11:16:58.678Z,24.87
2018-12-27T11:19:26.295Z,26.30
2018-12-27T11:21:53.595Z,26.00
2018-12-27T11:24:20.887Z,25.43
2018-12-27T11:26:49.308Z,25.03
2018-12-27T11:29:17.011Z,27.93
2018-12-27T11:31:44.370Z,24.80
2018-12-27T11:34:11.628Z,25.23
2018-12-27T11:36:38.964Z,24.50
2018-12-27T11:39:06.292Z,27.40
2018-12-27T11:41:33.648Z,28.93
2018-12-27T11:44:01.189Z,27.87
2018-12-27T11:46:28.571Z,27.20
2018-12-27T11:48:59.054Z,28.40
2018-12-27T11:51:26.458Z,27.87
2018-12-27T11:53:53.815Z,28.70
2018-12-27T11:56:21.160Z,32.93
2018-12-27T11:58:48.564Z,29.53
2018-12-27T12:01:15.932Z,30.87
2018-12-27T12:03:43.272Z,29.90
2018-12-27T12:06:10.584Z,33.23
2018-12-27T12:08:37.871Z,32.10
2018-12-27T12:11:05.253Z,33.63
2018-12-27T12:13:32.533Z,31.90
2018-12-27T12:15:59.774Z,32.70
2018-12-27T12:18:27.084Z,30.63
2018-12-27T12:20:54.385Z,30.93
2018-12-27T12:23:21.646Z,29.53
2018-12-27T12:25:49.074Z,31.43
2018-12-27T12:28:16.341Z,29.10
2018-12-27T12:30:43.717Z,30.63
2018-12-27T12:33:10.963Z,31.97
2018-12-27T12:35:38.252Z,30.90
2018-12-27T12:38:05.809Z,28.60
2018-12-27T12:40:33.165Z,31.53
2018-12-27T12:43:00.398Z,30.03
2018-12-27T12:45:27.724Z,30.87
2018-12-27T12:47:55.212Z,31.93
2018-12-27T12:50:22.538Z,32.80
2018-12-27T12:52:49.840Z,31.90
2018-12-27T12:55:17.070Z,30.47
2018-12-27T12:57:44.293Z,28.03
2018-12-27T13:00:11.811Z,30.37
2018-12-27T13:02:39.027Z,28.60
2018-12-27T13:05:06.360Z,27.57
2018-12-27T13:07:33.647Z,28.80
2018-12-27T13:10:00.924Z,24.87
2018-12-27T13:12:28.247Z,28.70
2018-12-27T13:14:55.479Z,27.80
2018-12-27T13:17:22.709Z,31.23
2018-12-27T13:19:49.955Z,29.40
2018-12-27T13:22:17.187Z,30.90
2018-12-27T13:24:44.555Z,30.53
2018-12-27T13:27:14.184Z,30.70
2018-12-27T13:29:41.471Z,28.80
2018-12-27T13:32:09.982Z,30.73
2018-12-27T13:34:38.480Z,32.37
2018-12-27T13:37:05.779Z,30.27
2018-12-27T13:39:34.695Z,30.47
2018-12-27T13:42:02.126Z,27.60
2018-12-27T13:44:29.363Z,27.80
2018-12-27T13:46:56.880Z,26.83
2018-12-27T13:49:24.465Z,28.57
2018-12-27T13:51:51.803Z,27.73
2018-12-27T13:54:19.039Z,28.57
2018-12-27T13:56:46.283Z,27.70
2018-12-27T13:59:13.683Z,29.97
2018-12-27T14:01:40.930Z,30.60
2018-12-27T14:04:08.271Z,28.73
2018-12-27T14:06:35.503Z,29.27
2018-12-27T14:09:05.267Z,29.53
2018-12-27T14:11:32.527Z,29.70
2018-12-27T14:13:59.782Z,32.70
2018-12-27T14:16:27.067Z,30.33
2018-12-27T14:18:54.336Z,32.13
2018-12-27T14:21:21.588Z,30.57
2018-12-27T14:23:48.828Z,30.13
2018-12-27T14:26:16.079Z,31.27
2018-12-27T14:28:43.375Z,29.50
2018-12-27T14:31:10.654Z,30.57
2018-12-27T14:33:37.943Z,30.43
2018-12-27T14:36:05.224Z,31.60
2018-12-27T14:38:32.522Z,29.57
2018-12-27T14:40:59.755Z,30.70
2018-12-27T14:43:27.011Z,33.33
2018-12-27T14:45:54.236Z,29.27
2018-12-27T14:48:21.543Z,30.40
2018-12-27T14:50:48.827Z,32.20
2018-12-27T14:53:16.187Z,31.63
2018-12-27T14:55:43.436Z,32.10
2018-12-27T14:58:10.658Z,33.10
2018-12-27T15:00:37.927Z,32.90
2018-12-27T15:03:05.152Z,33.23
2018-12-27T15:05:32.412Z,33.37
2018-12-27T15:07:59.668Z,31.47
2018-12-27T15:10:26.967Z,32.63
2018-12-27T15:12:54.654Z,33.57
2018-12-27T15:15:21.883Z,33.27
2018-12-27T15:17:49.095Z,32.40
2018-12-27T15:20:16.364Z,37.13
2018-12-27T15:22:43.612Z,38.37
2018-12-27T15:25:10.870Z,36.57
2018-12-27T15:27:38.145Z,44.47
2018-12-27T15:30:05.432Z,39.00
2018-12-27T15:32:34.479Z,37.73
2018-12-27T15:35:01.756Z,38.33
2018-12-27T15:37:29.161Z,37.50
2018-12-27T15:39:56.484Z,35.57
2018-12-27T15:42:23.736Z,36.40
2018-12-27T15:44:51.125Z,35.80
2018-12-27T15:47:18.368Z,35.10
2018-12-27T15:50:05.136Z,38.83
2018-12-27T15:52:32.388Z,36.50
2018-12-27T15:54:59.788Z,35.47
2018-12-27T15:57:27.029Z,35.33
2018-12-27T15:59:54.299Z,35.87
2018-12-27T16:02:21.534Z,35.67
2018-12-27T16:04:50.658Z,36.13
2018-12-27T16:07:17.923Z,37.83
2018-12-27T16:09:45.162Z,37.50
2018-12-27T16:12:12.428Z,37.53
2018-12-27T16:14:39.914Z,37.10
2018-12-27T16:17:07.324Z,32.53
2018-12-27T16:19:37.493Z,35.13
2018-12-27T16:22:04.715Z,36.83
2018-12-27T16:24:31.975Z,37.27
2018-12-27T16:26:59.235Z,37.47
2018-12-27T16:29:26.526Z,36.80
2018-12-27T16:31:53.774Z,37.70
2018-12-27T16:34:21.023Z,36.40
2018-12-27T16:36:48.305Z,35.10
2018-12-27T16:39:15.653Z,35.13
2018-12-27T16:41:42.906Z,39.57
2018-12-27T16:44:12.435Z,37.77
2018-12-27T16:46:39.691Z,37.83
2018-12-27T16:49:06.947Z,34.90
2018-12-27T16:51:34.279Z,38.43
2018-12-27T16:54:01.602Z,35.47
2018-12-27T16:56:29.952Z,36.73
2018-12-27T16:58:57.183Z,35.10
2018-12-27T17:01:24.419Z,34.80
2018-12-27T17:03:51.687Z,34.93
2018-12-27T17:06:19.032Z,33.67
2018-12-27T17:08:46.453Z,37.23
2018-12-27T17:11:13.847Z,38.90
2018-12-27T17:13:41.084Z,41.97
2018-12-27T17:16:08.340Z,46.57
2018-12-27T17:18:35.554Z,42.17
2018-12-27T17:21:02.872Z,44.33
2018-12-27T17:23:30.115Z,45.07
2018-12-27T17:25:57.360Z,39.83
2018-12-27T17:28:24.639Z,47.43
2018-12-27T17:30:51.890Z,43.87
2018-12-27T17:33:19.140Z,40.70
2018-12-27T17:35:47.251Z,44.23
2018-12-27T17:38:35.322Z,44.73
2018-12-27T17:41:02.676Z,43.83
2018-12-27T17:43:29.927Z,41.47
2018-12-27T17:45:59.298Z,47.70
2018-12-27T17:48:27.607Z,42.43
2018-12-27T17:50:54.944Z,40.43
2018-12-27T17:53:22.250Z,42.43
2018-12-27T17:55:49.491Z,41.80
2018-12-27T17:58:16.736Z,42.47
2018-12-27T18:00:43.998Z,41.40
2018-12-27T18:03:11.293Z,45.30
2018-12-27T18:05:38.676Z,41.97
2018-12-27T18:08:05.908Z,43.67
2018-12-27T18:10:33.175Z,41.90
2018-12-27T18:13:00.399Z,44.37
2018-12-27T18:15:27.707Z,46.30
2018-12-27T18:17:55.095Z,45.30
2018-12-27T18:20:22.343Z,41.47
2018-12-27T18:22:49.580Z,42.83
2018-12-27T18:25:16.891Z,42.97
2018-12-27T18:27:44.143Z,43.50
2018-12-27T18:30:11.375Z,46.43
2018-12-27T18:32:38.632Z,46.20
2018-12-27T18:35:06.099Z,44.97
2018-12-27T18:37:37.614Z,45.23
2018-12-27T18:40:02.844Z,45.53
2018-12-27T18:42:30.109Z,43.50
2018-12-27T18:44:57.391Z,45.77
2018-12-27T18:47:24.711Z,43.43
2018-12-27T18:49:51.963Z,45.73
2018-12-27T18:52:19.220Z,49.60
2018-12-27T18:54:46.455Z,47.13
2018-12-27T18:57:13.716Z,46.20
2018-12-27T18:59:41.004Z,47.43
2018-12-27T19:02:08.257Z,47.77
2018-12-27T19:04:35.484Z,49.13
2018-12-27T19:07:02.715Z,45.70
2018-12-27T19:09:29.996Z,46.57
2018-12-27T19:12:33.919Z,48.70
2018-12-27T19:15:05.475Z,49.67
2018-12-27T19:17:39.189Z,47.63
2018-12-27T19:20:06.806Z,50.03
2018-12-27T19:23:00.731Z,52.20
2018-12-27T19:25:27.975Z,50.40
2018-12-27T19:27:55.296Z,54.67
2018-12-27T19:30:24.197Z,52.33
2018-12-27T19:32:51.533Z,46.70
2018-12-27T19:35:19.068Z,52.30
2018-12-27T19:38:05.902Z,51.40
2018-12-27T19:40:33.292Z,50.17
2018-12-27T19:43:00.549Z,45.70
2018-12-27T19:45:30.413Z,51.47
2018-12-27T19:47:57.736Z,52.27
2018-12-27T19:50:25.000Z,49.20
2018-12-27T19:52:54.082Z,50.00
2018-12-27T19:55:21.305Z,49.37
2018-12-27T19:57:50.123Z,47.30
2018-12-27T20:00:17.433Z,51.87
2018-12-27T20:02:44.662Z,56.03
2018-12-27T20:05:11.915Z,55.10
2018-12-27T20:07:39.240Z,53.83
2018-12-27T20:10:09.147Z,53.73
2018-12-27T20:12:36.394Z,56.70
2018-12-27T20:15:03.796Z,50.93
2018-12-27T20:17:31.055Z,56.97
2018-12-27T20:19:58.429Z,55.87
2018-12-27T20:22:25.744Z,54.03
2018-12-27T20:24:53.301Z,55.27
2018-12-27T20:27:20.976Z,51.83
2018-12-27T20:29:48.252Z,56.50
2018-12-27T20:32:15.617Z,54.87
2018-12-27T20:34:43.175Z,54.80
2018-12-27T20:37:10.536Z,58.07
2018-12-27T20:39:37.866Z,58.97
2018-12-27T20:42:05.230Z,61.07
2018-12-27T20:44:32.556Z,63.10
2018-12-27T20:46:59.828Z,59.60
2018-12-27T20:49:27.092Z,64.13
2018-12-27T20:51:54.315Z,68.43
2018-12-27T20:54:21.608Z,74.60
2018-12-27T20:56:48.839Z,68.87
2018-12-27T20:59:16.084Z,67.70
2018-12-27T21:01:43.459Z,62.27
2018-12-27T21:04:11.976Z,63.43
2018-12-27T21:06:39.355Z,61.03
2018-12-27T21:09:06.576Z,54.70
2018-12-27T21:11:33.823Z,59.50
2018-12-27T21:14:01.137Z,60.80
2018-12-27T21:16:28.435Z,58.90
2018-12-27T21:18:55.707Z,59.03
2018-12-27T21:21:22.956Z,61.07
2018-12-27T21:23:50.225Z,59.57
2018-12-27T21:26:17.631Z,55.67
2018-12-27T21:28:44.918Z,58.70
2018-12-27T21:31:12.197Z,60.30
2018-12-27T21:33:39.488Z,59.43
2018-12-27T21:36:06.749Z,55.93
2018-12-27T21:38:34.334Z,58.07
2018-12-27T21:41:01.565Z,59.93
2018-12-27T21:43:28.827Z,57.53
2018-12-27T21:45:56.116Z,59.87
2018-12-27T21:48:23.375Z,58.10
2018-12-27T21:50:50.613Z,58.03
2018-12-27T21:53:17.867Z,53.57
2018-12-27T21:55:45.141Z,55.83
2018-12-27T21:58:13.516Z,56.40
2018-12-27T22:00:40.826Z,56.03
2018-12-27T22:03:08.101Z,56.10
2018-12-27T22:05:35.391Z,56.60
2018-12-27T22:08:02.631Z,58.63
2018-12-27T22:10:29.875Z,60.97
2018-12-27T22:12:57.122Z,60.57
2018-12-27T22:15:24.375Z,59.87
2018-12-27T22:17:51.648Z,57.70
2018-12-27T22:20:18.890Z,62.53
2018-12-27T22:22:46.159Z,61.63
2018-12-27T22:25:13.401Z,55.73
2018-12-27T22:27:40.637Z,53.30
2018-12-27T22:30:07.909Z,56.93
2018-12-27T22:32:35.136Z,54.10
2018-12-27T22:35:02.371Z,52.30
2018-12-27T22:37:31.783Z,53.17
2018-12-27T22:39:59.020Z,52.23
2018-12-27T22:42:26.282Z,52.70
2018-12-27T22:44:53.507Z,49.03
2018-12-27T22:47:21.271Z,51.77
2018-12-27T22:49:48.559Z,53.10
2018-12-27T22:52:15.783Z,52.33
2018-12-27T22:54:43.079Z,51.67
2018-12-27T22:57:10.391Z,52.43
2018-12-27T22:59:43.673Z,52.57
2018-12-27T23:02:10.914Z,54.37
2018-12-27T23:04:38.199Z,49.13
2018-12-27T23:07:05.451Z,53.80
2018-12-27T23:09:32.707Z,51.37
2018-12-27T23:11:59.991Z,53.43
2018-12-27T23:14:27.229Z,55.73
2018-12-27T23:16:54.511Z,51.50
2018-12-27T23:19:21.771Z,54.30
2018-12-27T23:21:49.019Z,54.23
2018-12-27T23:24:16.287Z,56.53
2018-12-27T23:26:43.544Z,71.10
2018-12-27T23:29:10.783Z,61.43
2018-12-27T23:31:38.724Z,56.13
2018-12-27T23:34:06.071Z,56.13
2018-12-27T23:36:33.533Z,57.53
2018-12-27T23:39:00.799Z,54.77
2018-12-27T23:41:28.035Z,54.77
2018-12-27T23:43:55.281Z,52.87
2018-12-27T23:46:22.520Z,53.70
2018-12-27T23:48:49.762Z,54.00
2018-12-27T23:51:17.021Z,52.07
2018-12-27T23:53:44.339Z,53.53
2018-12-27T23:56:11.587Z,53.10
2018-12-27T23:58:38.845Z,51.23
